createdAt,value
2019-01-21T00:00:46.327Z,41.27
2019-01-21T00:03:14.656Z,56.67
2019-01-21T00:05:42.057Z,43.60
2019-01-21T00:08:09.157Z,41.10
2019-01-21T00:10:36.198Z,42.87
2019-01-21T00:13:03.696Z,39.70
2019-01-21T00:15:30.967Z,36.57
2019-01-21T00:17:57.991Z,37.50
2019-01-21T00:20:25.049Z,41.17
2019-01-21T00:22:52.123Z,42.43
2019-01-21T00:25:19.168Z,46.63
2019-01-21T00:27:46.215Z,45.23
2019-01-21T00:30:13.339Z,45.60
2019-01-21T00:32:40.416Z,37.27
2019-01-21T00:35:08.378Z,44.07
2019-01-21T00:37:35.568Z,43.33
2019-01-21T00:40:03.506Z,38.80
2019-01-21T00:42:30.537Z,43.23
2019-01-21T00:44:57.938Z,39.13
2019-01-21T00:47:29.840Z,42.63
2019-01-21T00:49:53.913Z,40.57
2019-01-21T00:52:21.001Z,44.60
2019-01-21T00:54:48.031Z,40.87
2019-01-21T00:57:15.410Z,38.63
2019-01-21T00:59:42.504Z,41.30
2019-01-21T01:02:09.635Z,39.30
2019-01-21T01:04:36.677Z,49.47
2019-01-21T01:07:03.788Z,46.17
2019-01-21T01:09:30.863Z,44.10
2019-01-21T01:11:58.072Z,43.87
2019-01-21T01:14:25.111Z,40.47
2019-01-21T01:16:52.214Z,41.77
2019-01-21T01:19:19.275Z,41.50
2019-01-21T01:21:46.309Z,40.57
2019-01-21T01:24:14.576Z,41.53
2019-01-21T01:26:41.613Z,38.33
2019-01-21T01:29:08.645Z,42.37
2019-01-21T01:31:35.716Z,47.10
2019-01-21T01:34:02.750Z,47.73
2019-01-21T01:36:29.793Z,43.40
2019-01-21T01:41:37.348Z,35.10
2019-01-21T01:44:04.403Z,40.50
2019-01-21T01:46:31.507Z,43.57
2019-01-21T01:48:58.989Z,40.20
2019-01-21T01:51:26.150Z,45.30
2019-01-21T01:53:53.314Z,32.93
2019-01-21T01:56:40.668Z,42.80
2019-01-21T01:59:08.198Z,41.27
2019-01-21T02:01:35.244Z,40.87
2019-01-21T02:04:02.318Z,34.60
2019-01-21T02:06:29.945Z,44.10
2019-01-21T02:08:57.040Z,43.30
2019-01-21T02:11:24.128Z,47.23
2019-01-21T02:13:51.484Z,40.63
2019-01-21T02:16:18.532Z,41.23
2019-01-21T02:18:45.635Z,44.53
2019-01-21T02:21:12.700Z,46.13
2019-01-21T02:23:43.916Z,41.50
2019-01-21T02:26:21.588Z,44.37
2019-01-21T02:29:16.996Z,33.43
2019-01-21T02:32:29.015Z,46.00
2019-01-21T02:35:36.239Z,41.63
2019-01-21T02:38:41.473Z,36.17
2019-01-21T02:42:01.567Z,39.83
2019-01-21T02:44:58.382Z,38.40
2019-01-21T02:47:37.274Z,32.73
2019-01-21T02:50:26.779Z,33.40
2019-01-21T02:53:33.026Z,38.33
2019-01-21T02:56:30.668Z,34.53
2019-01-21T02:59:34.542Z,33.20
2019-01-21T03:02:45.286Z,35.23
2019-01-21T03:06:11.627Z,33.97
2019-01-21T03:09:31.378Z,35.13
2019-01-21T03:12:36.029Z,39.47
2019-01-21T03:16:09.685Z,43.00
2019-01-21T03:19:16.794Z,41.87
2019-01-21T03:22:06.989Z,41.40
2019-01-21T03:25:14.553Z,39.23
2019-01-21T03:28:19.440Z,37.13
2019-01-21T03:31:44.087Z,38.40
2019-01-21T03:34:37.177Z,36.70
2019-01-21T03:38:10.421Z,37.20
2019-01-21T03:41:08.836Z,40.67
2019-01-21T03:44:00.688Z,39.50
2019-01-21T03:47:06.443Z,42.67
2019-01-21T03:49:44.161Z,42.17
2019-01-21T03:52:49.010Z,39.47
2019-01-21T03:55:17.397Z,34.77
2019-01-21T03:58:35.570Z,39.53
2019-01-21T04:01:36.968Z,38.63
2019-01-21T04:04:54.445Z,32.93
2019-01-21T04:08:05.061Z,38.53
2019-01-21T04:11:29.241Z,34.47
2019-01-21T04:14:31.185Z,35.73
2019-01-21T04:17:49.063Z,38.70
2019-01-21T04:20:49.139Z,35.30
2019-01-21T04:23:58.086Z,39.67
2019-01-21T04:27:03.908Z,37.30
2019-01-21T04:30:03.835Z,36.70
2019-01-21T04:33:24.800Z,32.33
2019-01-21T04:36:10.429Z,34.77
2019-01-21T04:39:07.164Z,32.27
2019-01-21T04:42:24.683Z,37.70
2019-01-21T04:45:33.102Z,36.83
2019-01-21T04:48:15.454Z,38.10
2019-01-21T04:51:17.525Z,34.30
2019-01-21T04:54:23.195Z,41.00
2019-01-21T04:57:19.322Z,43.47
2019-01-21T05:00:13.115Z,41.73
2019-01-21T05:03:09.479Z,34.27
2019-01-21T05:05:48.837Z,35.67
2019-01-21T05:08:56.822Z,39.20
2019-01-21T05:12:01.407Z,53.47
2019-01-21T05:15:05.800Z,33.07
2019-01-21T05:18:13.901Z,37.87
2019-01-21T05:21:30.059Z,39.27
2019-01-21T05:24:11.366Z,38.57
2019-01-21T05:27:14.957Z,35.53
2019-01-21T05:29:58.593Z,36.37
2019-01-21T05:33:26.018Z,35.90
2019-01-21T05:36:47.057Z,38.07
2019-01-21T05:39:58.818Z,41.70
2019-01-21T05:43:35.389Z,36.03
2019-01-21T05:46:53.295Z,37.87
2019-01-21T05:49:44.795Z,36.73
2019-01-21T05:53:00.056Z,38.33
2019-01-21T05:55:55.675Z,35.17
2019-01-21T05:59:03.424Z,39.40
2019-01-21T06:02:21.601Z,35.03
2019-01-21T06:05:39.362Z,37.43
2019-01-21T06:08:53.942Z,37.90
2019-01-21T06:11:40.347Z,33.33
2019-01-21T06:14:36.143Z,32.80
2019-01-21T06:17:44.050Z,40.70
2019-01-21T06:21:02.238Z,34.93
2019-01-21T06:23:56.616Z,35.40
2019-01-21T06:27:06.104Z,39.40
2019-01-21T06:29:49.863Z,39.97
2019-01-21T06:33:16.806Z,35.13
2019-01-21T06:36:20.066Z,39.30
2019-01-21T06:39:53.491Z,32.90
2019-01-21T06:43:03.691Z,38.37
2019-01-21T06:46:16.446Z,37.00
2019-01-21T06:49:10.222Z,39.73
2019-01-21T06:52:24.269Z,40.33
2019-01-21T06:55:11.282Z,46.40
2019-01-21T06:58:15.953Z,29.10
2019-01-21T07:01:23.806Z,35.40
2019-01-21T07:04:35.696Z,35.00
2019-01-21T07:07:41.730Z,37.67
2019-01-21T07:10:52.667Z,41.37
2019-01-21T07:14:12.881Z,39.30
2019-01-21T07:17:27.823Z,37.47
2019-01-21T07:20:42.360Z,36.17
2019-01-21T07:24:05.941Z,33.93
2019-01-21T07:27:09.690Z,34.40
2019-01-21T07:30:04.386Z,34.30
2019-01-21T07:32:45.634Z,36.57
2019-01-21T07:35:49.793Z,39.53
2019-01-21T07:38:41.019Z,36.43
2019-01-21T07:41:34.148Z,46.83
2019-01-21T07:44:15.206Z,36.47
2019-01-21T07:47:30.079Z,39.23
2019-01-21T07:50:50.376Z,35.60
2019-01-21T07:53:49.111Z,37.17
2019-01-21T07:57:00.275Z,42.87
2019-01-21T08:00:22.161Z,39.43
2019-01-21T08:03:18.754Z,43.17
2019-01-21T08:06:27.275Z,38.63
2019-01-21T08:09:36.095Z,41.13
2019-01-21T08:12:25.916Z,35.73
2019-01-21T08:15:28.619Z,36.97
2019-01-21T08:18:33.384Z,36.30
2019-01-21T08:21:08.308Z,36.93
2019-01-21T08:23:51.600Z,47.20
2019-01-21T08:27:02.567Z,36.23
2019-01-21T08:30:05.537Z,46.23
2019-01-21T08:32:58.731Z,44.47
2019-01-21T08:36:04.142Z,39.33
2019-01-21T08:39:11.425Z,44.37
2019-01-21T08:42:00.990Z,42.17
2019-01-21T08:45:02.000Z,42.73
2019-01-21T08:48:01.419Z,47.20
2019-01-21T08:51:06.462Z,43.37
2019-01-21T08:54:09.025Z,46.93
2019-01-21T08:57:36.135Z,55.67
2019-01-21T09:01:00.247Z,56.43
2019-01-21T09:03:42.221Z,55.60
2019-01-21T09:06:37.257Z,58.63
2019-01-21T09:09:28.814Z,65.87
2019-01-21T09:12:32.837Z,63.47
2019-01-21T09:15:25.361Z,62.30
2019-01-21T09:18:33.054Z,64.57
2019-01-21T09:21:54.242Z,71.40
2019-01-21T09:24:47.290Z,80.20
2019-01-21T09:27:52.733Z,74.47
2019-01-21T09:30:54.096Z,75.00
2019-01-21T09:33:48.808Z,69.00
2019-01-21T09:37:02.821Z,75.73
2019-01-21T09:39:59.595Z,66.73
2019-01-21T09:43:08.661Z,69.73
2019-01-21T09:46:12.681Z,75.87
2019-01-21T09:48:38.699Z,82.10
2019-01-21T09:51:05.738Z,92.73
2019-01-21T09:53:34.447Z,85.90
2019-01-21T09:56:02.022Z,77.13
2019-01-21T09:58:31.944Z,77.80
2019-01-21T10:00:59.229Z,87.57
2019-01-21T10:03:26.981Z,83.07
2019-01-21T10:05:58.612Z,72.43
2019-01-21T10:08:53.072Z,85.53
2019-01-21T10:11:53.388Z,68.67
2019-01-21T10:14:46.153Z,71.33
2019-01-21T10:17:43.944Z,63.13
2019-01-21T10:20:38.114Z,75.63
2019-01-21T10:23:26.522Z,59.70
2019-01-21T10:26:28.541Z,58.50
2019-01-21T10:29:12.666Z,65.47
2019-01-21T10:32:17.647Z,62.97
2019-01-21T10:35:22.393Z,55.57
2019-01-21T10:38:28.413Z,53.10
2019-01-21T10:41:26.149Z,62.67
2019-01-21T10:44:32.197Z,54.67
2019-01-21T10:47:22.471Z,65.03
2019-01-21T10:50:29.986Z,57.17
2019-01-21T10:53:14.635Z,59.07
2019-01-21T10:56:25.489Z,53.20
2019-01-21T10:59:32.560Z,56.20
2019-01-21T11:02:33.437Z,60.30
2019-01-21T11:05:38.796Z,58.23
2019-01-21T11:08:31.536Z,58.93
2019-01-21T11:11:25.183Z,65.57
2019-01-21T11:14:58.543Z,57.60
2019-01-21T11:17:45.105Z,59.10
2019-01-21T11:21:00.891Z,60.37
2019-01-21T11:24:13.558Z,56.10
2019-01-21T11:27:14.871Z,54.90
2019-01-21T11:29:56.315Z,57.33
2019-01-21T11:32:59.324Z,46.73
2019-01-21T11:36:05.253Z,49.60
2019-01-21T11:39:00.602Z,45.20
2019-01-21T11:41:51.642Z,48.63
2019-01-21T11:45:07.486Z,40.67
2019-01-21T11:48:24.668Z,42.03
2019-01-21T11:51:33.562Z,49.97
2019-01-21T11:54:35.448Z,49.57
2019-01-21T11:57:25.377Z,44.07
2019-01-21T12:00:09.902Z,48.37
2019-01-21T12:03:03.696Z,46.43
2019-01-21T12:05:42.260Z,44.93
2019-01-21T12:08:53.152Z,43.67
2019-01-21T12:11:46.186Z,41.57
2019-01-21T12:15:09.765Z,40.60
2019-01-21T12:18:09.350Z,41.43
2019-01-21T12:21:23.329Z,36.83
2019-01-21T12:24:18.804Z,38.60
2019-01-21T12:27:19.996Z,37.13
2019-01-21T12:30:13.784Z,34.73
2019-01-21T12:33:18.414Z,31.10
2019-01-21T12:35:58.437Z,36.47
2019-01-21T12:39:05.935Z,34.93
2019-01-21T12:42:23.748Z,34.17
2019-01-21T12:45:43.882Z,37.07
2019-01-21T12:48:58.881Z,37.87
2019-01-21T12:52:13.417Z,31.80
2019-01-21T12:55:18.478Z,37.13
2019-01-21T13:02:09.295Z,39.90
2019-01-21T13:04:59.413Z,36.80
2019-01-21T13:07:46.636Z,41.53
2019-01-21T13:10:37.356Z,41.87
2019-01-21T13:14:01.752Z,39.47
2019-01-21T13:16:51.219Z,37.20
2019-01-21T13:19:33.399Z,34.67
2019-01-21T13:22:51.315Z,38.90
2019-01-21T13:25:51.136Z,34.20
2019-01-21T13:28:52.650Z,34.57
2019-01-21T13:31:57.091Z,41.90
2019-01-21T13:35:01.328Z,39.33
2019-01-21T13:38:16.197Z,37.23
2019-01-21T13:41:23.941Z,35.63
2019-01-21T13:44:22.823Z,30.90
2019-01-21T13:47:42.692Z,27.63
2019-01-21T13:50:37.175Z,36.27
2019-01-21T13:53:48.752Z,27.43
2019-01-21T13:56:39.752Z,27.07
2019-01-21T13:59:40.491Z,26.07
2019-01-21T14:02:26.264Z,26.10
2019-01-21T14:05:35.749Z,30.40
2019-01-21T14:08:24.270Z,31.37
2019-01-21T14:11:08.241Z,32.63
2019-01-21T14:14:20.232Z,25.43
2019-01-21T14:18:08.827Z,24.37
2019-01-21T14:20:46.675Z,31.80
2019-01-21T14:23:30.228Z,28.07
2019-01-21T14:26:32.767Z,40.47
2019-01-21T14:29:12.815Z,33.00
2019-01-21T14:32:16.085Z,38.33
2019-01-21T14:35:23.804Z,33.10
2019-01-21T14:38:40.556Z,31.53
2019-01-21T14:41:30.683Z,29.70
2019-01-21T14:48:06.215Z,27.97
2019-01-21T14:51:17.097Z,31.10
2019-01-21T14:54:07.290Z,30.73
2019-01-21T14:57:23.978Z,34.43
2019-01-21T15:00:39.296Z,31.67
2019-01-21T15:03:35.111Z,33.07
2019-01-21T15:06:43.340Z,28.60
2019-01-21T15:09:55.213Z,30.07
2019-01-21T15:12:53.071Z,24.77
2019-01-21T15:16:03.539Z,32.57
2019-01-21T15:19:01.390Z,34.13
2019-01-21T15:22:01.169Z,28.60
2019-01-21T15:25:22.449Z,33.00
2019-01-21T15:28:52.481Z,32.30
2019-01-21T15:31:56.169Z,32.47
2019-01-21T15:35:20.754Z,33.13
2019-01-21T15:38:09.174Z,33.57
2019-01-21T15:40:54.962Z,34.20
2019-01-21T15:43:45.262Z,38.27
2019-01-21T15:46:50.172Z,36.70
2019-01-21T15:49:35.550Z,37.20
2019-01-21T15:52:34.038Z,32.03
2019-01-21T15:55:17.050Z,34.90
2019-01-21T15:58:40.707Z,37.73
2019-01-21T16:01:33.983Z,37.67
2019-01-21T16:04:09.661Z,38.33
2019-01-21T16:07:02.824Z,41.97
2019-01-21T16:10:05.841Z,40.43
2019-01-21T16:13:08.142Z,40.73
2019-01-21T16:16:11.339Z,37.10
2019-01-21T16:18:52.434Z,38.87
2019-01-21T16:22:12.516Z,39.83
2019-01-21T16:25:06.352Z,40.93
2019-01-21T16:28:14.408Z,43.63
2019-01-21T16:31:03.501Z,49.00
2019-01-21T16:33:58.522Z,46.67
2019-01-21T16:37:01.332Z,48.07
2019-01-21T16:40:21.767Z,44.00
2019-01-21T16:42:48.954Z,47.40
2019-01-21T16:45:16.006Z,45.60
2019-01-21T16:47:43.118Z,46.17
2019-01-21T16:50:10.170Z,48.10
2019-01-21T16:52:37.331Z,45.50
2019-01-21T16:55:04.713Z,45.83
2019-01-21T16:57:31.774Z,49.83
2019-01-21T16:59:58.857Z,47.77
2019-01-21T17:02:26.029Z,50.80
2019-01-21T17:04:53.168Z,44.30
2019-01-21T17:07:20.215Z,44.67
2019-01-21T17:09:47.322Z,44.53
2019-01-21T17:12:14.363Z,47.87
2019-01-21T17:14:41.457Z,46.70
2019-01-21T17:17:08.568Z,52.70
2019-01-21T17:19:35.637Z,52.70
2019-01-21T17:22:21.281Z,52.03
2019-01-21T17:24:49.362Z,47.77
2019-01-21T17:27:16.407Z,50.37
2019-01-21T17:29:43.493Z,61.87
2019-01-21T17:32:10.524Z,54.77
2019-01-21T17:34:37.604Z,53.03
2019-01-21T17:37:04.729Z,51.27
2019-01-21T17:39:31.797Z,58.07
2019-01-21T17:41:58.869Z,45.27
2019-01-21T17:44:25.962Z,50.03
2019-01-21T17:46:53.023Z,51.50
2019-01-21T17:49:20.312Z,62.53
2019-01-21T17:51:47.498Z,52.23
2019-01-21T17:54:14.642Z,55.17
2019-01-21T17:56:41.740Z,54.23
2019-01-21T17:59:08.822Z,52.40
2019-01-21T18:01:39.324Z,62.20
2019-01-21T18:04:04.947Z,60.53
2019-01-21T18:06:34.779Z,53.80
2019-01-21T18:09:02.203Z,51.27
2019-01-21T18:11:29.430Z,63.50
2019-01-21T18:13:56.519Z,58.77
2019-01-21T18:16:23.741Z,60.70
2019-01-21T18:18:50.990Z,59.20
2019-01-21T18:21:18.078Z,57.73
2019-01-21T18:27:25.329Z,59.13
2019-01-21T18:29:52.537Z,64.70
2019-01-21T18:32:19.592Z,63.20
2019-01-21T18:34:46.782Z,68.73
2019-01-21T18:37:13.918Z,63.10
2019-01-21T18:39:40.956Z,71.60
2019-01-21T18:42:08.463Z,66.67
2019-01-21T18:44:35.762Z,64.73
2019-01-21T18:47:03.022Z,63.70
2019-01-21T18:49:30.166Z,73.17
2019-01-21T18:51:57.413Z,58.13
2019-01-21T18:54:24.481Z,67.53
2019-01-21T18:56:51.745Z,68.67
2019-01-21T19:03:01.309Z,62.63
2019-01-21T19:05:28.379Z,73.50
2019-01-21T19:07:55.451Z,68.77
2019-01-21T19:10:22.570Z,63.53
2019-01-21T19:13:08.262Z,71.50
2019-01-21T19:15:36.681Z,72.30
2019-01-21T19:18:04.023Z,62.00
2019-01-21T19:20:31.145Z,75.67
2019-01-21T19:22:59.980Z,61.27
2019-01-21T19:25:27.091Z,71.80
2019-01-21T19:27:54.191Z,79.90
2019-01-21T19:30:23.475Z,81.10
2019-01-21T19:32:50.569Z,68.57
2019-01-21T19:35:20.806Z,67.00
2019-01-21T19:37:49.312Z,66.87
2019-01-21T19:40:18.552Z,62.70
2019-01-21T19:42:45.642Z,73.30
2019-01-21T19:45:13.096Z,79.13
2019-01-21T19:47:40.255Z,74.13
2019-01-21T19:50:08.203Z,74.57
2019-01-21T19:52:35.294Z,69.10
2019-01-21T19:55:02.998Z,80.50
2019-01-21T19:57:30.232Z,69.33
2019-01-21T19:59:57.299Z,76.63
2019-01-21T20:02:24.674Z,75.93
2019-01-21T20:04:51.779Z,75.63
2019-01-21T20:07:18.973Z,68.07
2019-01-21T20:09:46.061Z,73.83
2019-01-21T20:12:14.301Z,68.80
2019-01-21T20:14:41.445Z,69.53
2019-01-21T20:17:08.522Z,70.83
2019-01-21T20:19:35.625Z,73.07
2019-01-21T20:22:07.303Z,80.33
2019-01-21T20:24:32.123Z,70.73
2019-01-21T20:26:59.226Z,74.33
2019-01-21T20:29:26.378Z,75.00
2019-01-21T20:31:53.775Z,83.07
2019-01-21T20:34:20.926Z,86.17
2019-01-21T20:36:48.070Z,77.50
2019-01-21T20:39:15.272Z,71.90
2019-01-21T20:41:42.336Z,81.17
2019-01-21T20:44:09.358Z,75.40
2019-01-21T20:46:36.465Z,76.17
2019-01-21T20:49:03.958Z,79.33
2019-01-21T20:51:31.038Z,75.53
2019-01-21T20:53:58.170Z,74.27
2019-01-21T20:56:25.284Z,73.87
2019-01-21T20:58:52.356Z,77.17
2019-01-21T21:01:19.490Z,66.17
2019-01-21T21:03:46.873Z,91.40
2019-01-21T21:06:13.999Z,64.50
2019-01-21T21:08:41.069Z,74.67
2019-01-21T21:11:08.086Z,79.43
2019-01-21T21:13:35.188Z,78.10
2019-01-21T21:16:02.330Z,75.60
2019-01-21T21:18:29.493Z,73.47
2019-01-21T21:20:56.632Z,81.97
2019-01-21T21:23:23.786Z,83.87
2019-01-21T21:25:50.842Z,80.87
2019-01-21T21:28:18.063Z,83.30
2019-01-21T21:31:22.060Z,86.73
2019-01-21T21:33:49.128Z,88.37
2019-01-21T21:36:16.175Z,88.03
2019-01-21T21:38:43.714Z,78.50
2019-01-21T21:41:10.868Z,83.80
2019-01-21T21:43:38.112Z,91.83
2019-01-21T21:46:05.757Z,89.63
2019-01-21T21:48:32.837Z,87.50
2019-01-21T21:50:59.966Z,91.63
2019-01-21T21:53:27.222Z,88.97
2019-01-21T21:55:54.935Z,82.70
2019-01-21T21:58:22.097Z,90.70
2019-01-21T22:00:49.247Z,90.20
2019-01-21T22:03:17.424Z,91.70
2019-01-21T22:05:44.451Z,82.20
2019-01-21T22:08:11.501Z,84.63
2019-01-21T22:10:38.610Z,80.57
2019-01-21T22:13:05.747Z,95.60
2019-01-21T22:15:32.839Z,89.03
2019-01-21T22:17:59.977Z,95.50
2019-01-21T22:20:27.206Z,91.83
2019-01-21T22:22:54.242Z,96.70
2019-01-21T22:25:21.295Z,78.13
2019-01-21T22:27:48.353Z,84.70
2019-01-21T22:30:20.366Z,81.20
2019-01-21T22:32:47.593Z,80.33
2019-01-21T22:35:14.767Z,84.17
2019-01-21T22:37:41.906Z,90.47
2019-01-21T22:40:11.771Z,93.77
2019-01-21T22:42:38.880Z,93.43
2019-01-21T22:45:07.442Z,93.53
2019-01-21T22:47:34.860Z,90.77
2019-01-21T22:50:02.432Z,82.87
2019-01-21T22:52:29.669Z,89.70
2019-01-21T22:54:56.770Z,92.77
2019-01-21T22:57:23.906Z,113.13
2019-01-21T22:59:51.003Z,99.53
2019-01-21T23:02:18.471Z,108.13
2019-01-21T23:04:45.510Z,99.43
2019-01-21T23:07:13.012Z,106.20
2019-01-21T23:09:41.250Z,98.93
2019-01-21T23:12:08.294Z,109.77
2019-01-21T23:14:35.395Z,103.43
2019-01-21T23:17:02.783Z,109.20
2019-01-21T23:19:29.846Z,99.73
2019-01-21T23:21:57.202Z,98.37
2019-01-21T23:24:24.305Z,107.73
2019-01-21T23:26:51.354Z,99.57
2019-01-21T23:29:18.484Z,103.63
2019-01-21T23:31:45.673Z,99.00
2019-01-21T23:34:12.707Z,95.10
2019-01-21T23:36:39.750Z,96.00
2019-01-21T23:39:07.594Z,90.57
2019-01-21T23:41:34.740Z,105.80
2019-01-21T23:44:01.835Z,98.80
2019-01-21T23:46:28.888Z,110.27
2019-01-21T23:48:56.077Z,100.23
2019-01-21T23:51:23.344Z,97.10
2019-01-21T23:53:50.428Z,89.63
2019-01-21T23:56:17.520Z,102.97
2019-01-21T23:58:44.698Z,96.83
